sensor_id;sensor_type;location;lat;lon;timestamp;pressure;altitude;pressure_sealevel;temperature;humidity
72975;BME280;74127;54.228;37.632;2024-02-23T00:03:18;996.89;;;-2.19;86.64648
72975;BME280;74127;54.228;37.632;2024-02-23T00:07:18;996.8339;;;-2.15;86.53027
72975;BME280;74127;54.228;37.632;2024-02-23T00:11:18;996.7142;;;-2.19;86.45801
72975;BME280;74127;54.228;37.632;2024-02-23T00:15:18;996.7142;;;-2.19;86.45801
72975;BME280;74127;54.228;37.632;2024-02-23T00:19:18;996.7634;;;-2.17;86.37793
72975;BME280;74127;54.228;37.632;2024-02-23T00:23:18;996.8203;;;-2.13;86.23047
72975;BME280;74127;54.228;37.632;2024-02-23T00:27:18;996.8447;;;-2.16;86.16211
72975;BME280;74127;54.228;37.632;2024-02-23T00:31:18;996.7756;;;-2.16;86.21289
72975;BME280;74127;54.228;37.632;2024-02-23T00:35:18;996.7756;;;-2.16;86.21289
72975;BME280;74127;54.228;37.632;2024-02-23T00:39:18;996.7734;;;-2.12;86.11719
72975;BME280;74127;54.228;37.632;2024-02-23T00:43:19;996.8597;;;-2.13;86.05273
72975;BME280;74127;54.228;37.632;2024-02-23T00:47:18;996.7095;;;-2.13;86.11426
72975;BME280;74127;54.228;37.632;2024-02-23T00:51:18;996.76;;;-2.09;86.02734
72975;BME280;74127;54.228;37.632;2024-02-23T00:55:18;996.76;;;-2.09;86.02734
72975;BME280;74127;54.228;37.632;2024-02-23T00:59:18;996.8876;;;-2.11;86.02539
72975;BME280;74127;54.228;37.632;2024-02-23T01:03:18;996.8386;;;-2.1;85.94336
72975;BME280;74127;54.228;37.632;2024-02-23T01:07:18;996.9651;;;-2.06;85.80469
72975;BME280;74127;54.228;37.632;2024-02-23T01:11:18;996.8836;;;-2.07;85.67676
72975;BME280;74127;54.228;37.632;2024-02-23T01:15:18;996.8836;;;-2.07;85.67676
72975;BME280;74127;54.228;37.632;2024-02-23T01:19:18;996.9007;;;-2.09;85.59766
72975;BME280;74127;54.228;37.632;2024-02-23T01:23:18;997.0464;;;-2.13;85.68457
72975;BME280;74127;54.228;37.632;2024-02-23T01:27:19;996.8767;;;-2.11;85.80566
72975;BME280;74127;54.228;37.632;2024-02-23T01:31:18;996.8867;;;-2.12;85.69922
72975;BME280;74127;54.228;37.632;2024-02-23T01:35:18;996.8867;;;-2.12;85.69922
72975;BME280;74127;54.228;37.632;2024-02-23T01:39:18;996.9266;;;-2.12;85.74121
72975;BME280;74127;54.228;37.632;2024-02-23T01:43:18;996.9434;;;-2.14;85.66406
72975;BME280;74127;54.228;37.632;2024-02-23T01:47:18;996.8823;;;-2.13;85.62402
72975;BME280;74127;54.228;37.632;2024-02-23T01:51:19;996.947;;;-2.12;85.60449
72975;BME280;74127;54.228;37.632;2024-02-23T01:55:20;996.947;;;-2.12;85.60449
72975;BME280;74127;54.228;37.632;2024-02-23T02:03:18;997.0019;;;-2.14;85.2959
72975;BME280;74127;54.228;37.632;2024-02-23T02:07:18;997.1736;;;-2.17;85.20801
72975;BME280;74127;54.228;37.632;2024-02-23T02:11:18;997.1783;;;-2.13;85.19336
72975;BME280;74127;54.228;37.632;2024-02-23T02:15:18;997.1783;;;-2.13;85.19336
72975;BME280;74127;54.228;37.632;2024-02-23T02:19:18;997.1386;;;-2.09;85.0957
72975;BME280;74127;54.228;37.632;2024-02-23T02:23:18;997.0872;;;-2.06;84.96875
72975;BME280;74127;54.228;37.632;2024-02-23T02:31:18;997.1025;;;-2.09;84.89844
72975;BME280;74127;54.228;37.632;2024-02-23T02:35:18;997.1025;;;-2.09;84.89844
72975;BME280;74127;54.228;37.632;2024-02-23T02:39:18;997.0906;;;-2.07;84.93359
72975;BME280;74127;54.228;37.632;2024-02-23T02:43:18;997.1671;;;-2.08;85.10156
72975;BME280;74127;54.228;37.632;2024-02-23T02:47:18;996.9656;;;-2.08;85.05957
72975;BME280;74127;54.228;37.632;2024-02-23T02:51:18;996.9384;;;-2.11;85.22168
72975;BME280;74127;54.228;37.632;2024-02-23T02:55:18;996.9384;;;-2.11;85.22168
72975;BME280;74127;54.228;37.632;2024-02-23T02:59:18;997.0552;;;-2.09;85.43066
72975;BME280;74127;54.228;37.632;2024-02-23T03:03:18;997.0676;;;-2.07;85.39453
72975;BME280;74127;54.228;37.632;2024-02-23T03:07:18;997.1758;;;-2.01;85.51172
72975;BME280;74127;54.228;37.632;2024-02-23T03:11:18;997.1608;;;-1.97;85.45703
72975;BME280;74127;54.228;37.632;2024-02-23T03:15:19;997.1608;;;-1.97;85.45703
72975;BME280;74127;54.228;37.632;2024-02-23T03:19:18;997.145;;;-2.06;85.47168
72975;BME280;74127;54.228;37.632;2024-02-23T03:23:18;997.1596;;;-2.02;85.5293
72975;BME280;74127;54.228;37.632;2024-02-23T03:27:19;997.1458;;;-2.06;85.59473
72975;BME280;74127;54.228;37.632;2024-02-23T03:31:19;997.3617;;;-2;85.56641
72975;BME280;74127;54.228;37.632;2024-02-23T03:35:19;997.3617;;;-2;85.56641
72975;BME280;74127;54.228;37.632;2024-02-23T03:39:19;997.3187;;;-2.05;85.53613
72975;BME280;74127;54.228;37.632;2024-02-23T03:43:19;997.3528;;;-2.02;85.60449
72975;BME280;74127;54.228;37.632;2024-02-23T03:47:19;997.3822;;;-1.99;85.62012
72975;BME280;74127;54.228;37.632;2024-02-23T03:51:19;997.3733;;;-2.01;85.67969
72975;BME280;74127;54.228;37.632;2024-02-23T03:55:19;997.3733;;;-2.01;85.67969
72975;BME280;74127;54.228;37.632;2024-02-23T03:59:19;997.3539;;;-1.94;85.68457
72975;BME280;74127;54.228;37.632;2024-02-23T04:03:19;997.2197;;;-1.94;85.60938
72975;BME280;74127;54.228;37.632;2024-02-23T04:07:19;997.3118;;;-1.93;85.72656
72975;BME280;74127;54.228;37.632;2024-02-23T04:11:19;997.2648;;;-1.94;85.84961
72975;BME280;74127;54.228;37.632;2024-02-23T04:15:19;997.2648;;;-1.94;85.84961
72975;BME280;74127;54.228;37.632;2024-02-23T04:19:19;997.2863;;;-1.99;86.12305
72975;BME280;74127;54.228;37.632;2024-02-23T04:23:19;997.4041;;;-2;86.18164
72975;BME280;74127;54.228;37.632;2024-02-23T04:27:19;997.3059;;;-2.02;86.26367
72975;BME280;74127;54.228;37.632;2024-02-23T04:31:19;997.3585;;;-2.03;86.25195
72975;BME280;74127;54.228;37.632;2024-02-23T04:35:19;997.3585;;;-2.03;86.25195
72975;BME280;74127;54.228;37.632;2024-02-23T04:39:19;997.346;;;-1.94;86.20605
72975;BME280;74127;54.228;37.632;2024-02-23T04:43:19;997.5864;;;-1.95;86.03613
72975;BME280;74127;54.228;37.632;2024-02-23T04:47:19;997.4518;;;-1.96;86.16016
72975;BME280;74127;54.228;37.632;2024-02-23T04:51:19;997.6431;;;-1.93;86.30176
72975;BME280;74127;54.228;37.632;2024-02-23T04:55:19;997.6431;;;-1.93;86.30176
72975;BME280;74127;54.228;37.632;2024-02-23T04:59:19;997.5559;;;-1.97;86.25195
72975;BME280;74127;54.228;37.632;2024-02-23T05:03:19;997.6158;;;-1.92;86.3877
72975;BME280;74127;54.228;37.632;2024-02-23T05:07:19;997.733;;;-1.87;86.41992
72975;BME280;74127;54.228;37.632;2024-02-23T05:11:19;997.7625;;;-1.82;86.5127
72975;BME280;74127;54.228;37.632;2024-02-23T05:15:19;997.7625;;;-1.82;86.5127
72975;BME280;74127;54.228;37.632;2024-02-23T05:19:19;997.7834;;;-1.75;86.54883
72975;BME280;74127;54.228;37.632;2024-02-23T05:23:19;997.824;;;-1.79;86.76953
72975;BME280;74127;54.228;37.632;2024-02-23T05:27:19;997.7446;;;-1.77;86.9834
72975;BME280;74127;54.228;37.632;2024-02-23T05:31:19;997.7489;;;-1.71;86.99707
72975;BME280;74127;54.228;37.632;2024-02-23T05:35:19;997.7489;;;-1.71;86.99707
72975;BME280;74127;54.228;37.632;2024-02-23T05:39:19;997.8133;;;-1.71;86.90234
72975;BME280;74127;54.228;37.632;2024-02-23T05:43:19;997.8561;;;-1.66;86.94336
72975;BME280;74127;54.228;37.632;2024-02-23T05:47:19;997.8547;;;-1.63;86.94922
72975;BME280;74127;54.228;37.632;2024-02-23T05:51:19;997.8494;;;-1.57;86.73145
72975;BME280;74127;54.228;37.632;2024-02-23T05:55:19;997.8494;;;-1.57;86.73145
72975;BME280;74127;54.228;37.632;2024-02-23T05:59:19;997.873;;;-1.55;86.56836
72975;BME280;74127;54.228;37.632;2024-02-23T06:03:19;997.8749;;;-1.59;86.33008
72975;BME280;74127;54.228;37.632;2024-02-23T06:07:19;997.943;;;-1.56;86.27246
72975;BME280;74127;54.228;37.632;2024-02-23T06:11:19;997.9443;;;-1.55;86.21191
72975;BME280;74127;54.228;37.632;2024-02-23T06:15:19;997.9443;;;-1.55;86.21191
72975;BME280;74127;54.228;37.632;2024-02-23T06:19:19;997.9761;;;-1.54;86.23438
72975;BME280;74127;54.228;37.632;2024-02-23T06:23:19;998.0016;;;-1.51;86.15625
72975;BME280;74127;54.228;37.632;2024-02-23T06:27:19;998.1356;;;-1.46;86.19922
72975;BME280;74127;54.228;37.632;2024-02-23T06:31:19;998.0513;;;-1.41;86.14355
72975;BME280;74127;54.228;37.632;2024-02-23T06:35:19;998.0513;;;-1.41;86.14355
72975;BME280;74127;54.228;37.632;2024-02-23T06:39:19;998.1591;;;-1.4;86.24219
72975;BME280;74127;54.228;37.632;2024-02-23T06:43:19;998.2555;;;-1.34;86.43359
72975;BME280;74127;54.228;37.632;2024-02-23T06:47:19;998.2015;;;-1.29;86.46387
72975;BME280;74127;54.228;37.632;2024-02-23T06:51:19;998.2997;;;-1.29;86.46387
72975;BME280;74127;54.228;37.632;2024-02-23T06:55:19;998.2997;;;-1.29;86.46387
72975;BME280;74127;54.228;37.632;2024-02-23T06:59:19;998.2769;;;-1.27;86.85547
72975;BME280;74127;54.228;37.632;2024-02-23T07:03:19;998.3514;;;-1.14;86.90332
72975;BME280;74127;54.228;37.632;2024-02-23T07:07:19;998.296;;;-1.04;86.92188
72975;BME280;74127;54.228;37.632;2024-02-23T07:11:19;998.3926;;;-1;87.08887
72975;BME280;74127;54.228;37.632;2024-02-23T07:15:22;998.3926;;;-1;87.08887
72975;BME280;74127;54.228;37.632;2024-02-23T07:19:19;998.3798;;;-0.98;87.22949
72975;BME280;74127;54.228;37.632;2024-02-23T07:23:19;998.3931;;;-0.94;87.41504
72975;BME280;74127;54.228;37.632;2024-02-23T07:27:19;998.33;;;-0.93;87.6709
72975;BME280;74127;54.228;37.632;2024-02-23T07:31:19;998.4172;;;-0.87;87.79785
72975;BME280;74127;54.228;37.632;2024-02-23T07:35:19;998.4172;;;-0.87;87.79785
72975;BME280;74127;54.228;37.632;2024-02-23T07:39:19;998.3719;;;-0.81;87.95605
72975;BME280;74127;54.228;37.632;2024-02-23T07:43:19;998.5154;;;-0.72;87.92285
72975;BME280;74127;54.228;37.632;2024-02-23T07:47:19;998.5036;;;-0.64;87.9082
72975;BME280;74127;54.228;37.632;2024-02-23T07:51:19;998.5677;;;-0.62;87.8916
72975;BME280;74127;54.228;37.632;2024-02-23T07:55:19;998.5677;;;-0.62;87.8916
72975;BME280;74127;54.228;37.632;2024-02-23T07:59:19;998.5112;;;-0.58;87.89941
72975;BME280;74127;54.228;37.632;2024-02-23T08:03:19;998.5427;;;-0.47;87.85059
72975;BME280;74127;54.228;37.632;2024-02-23T08:11:19;998.5926;;;-0.33;87.75977
72975;BME280;74127;54.228;37.632;2024-02-23T08:15:19;998.5926;;;-0.33;87.75977
72975;BME280;74127;54.228;37.632;2024-02-23T08:19:19;998.6664;;;-0.27;87.66016
72975;BME280;74127;54.228;37.632;2024-02-23T08:23:19;998.6348;;;-0.19;87.62012
72975;BME280;74127;54.228;37.632;2024-02-23T08:27:19;998.6769;;;-0.1;87.48438
72975;BME280;74127;54.228;37.632;2024-02-23T08:31:19;998.7271;;;-0.06;87.43945
72975;BME280;74127;54.228;37.632;2024-02-23T08:35:19;998.7271;;;-0.06;87.43945
72975;BME280;74127;54.228;37.632;2024-02-23T08:39:19;998.9266;;;-0.03;87.30859
72975;BME280;74127;54.228;37.632;2024-02-23T08:43:19;998.8569;;;-0.02;87.38379
72975;BME280;74127;54.228;37.632;2024-02-23T08:47:19;998.855;;;0.05;87.36719
72975;BME280;74127;54.228;37.632;2024-02-23T08:51:19;998.9775;;;0.15;87.32324
72975;BME280;74127;54.228;37.632;2024-02-23T08:55:19;998.9775;;;0.15;87.32324
72975;BME280;74127;54.228;37.632;2024-02-23T08:59:19;998.8635;;;0.16;87.17773
72975;BME280;74127;54.228;37.632;2024-02-23T09:03:19;998.8108;;;0.21;87.08398
72975;BME280;74127;54.228;37.632;2024-02-23T09:07:19;998.7951;;;0.2;87.12207
72975;BME280;74127;54.228;37.632;2024-02-23T09:11:19;998.8951;;;0.19;87.13281
72975;BME280;74127;54.228;37.632;2024-02-23T09:15:19;998.8951;;;0.19;87.13281
72975;BME280;74127;54.228;37.632;2024-02-23T09:19:19;998.7719;;;0.17;87.03223
72975;BME280;74127;54.228;37.632;2024-02-23T09:23:19;998.8625;;;0.24;86.94238
72975;BME280;74127;54.228;37.632;2024-02-23T09:27:22;998.877;;;0.23;86.71973
72975;BME280;74127;54.228;37.632;2024-02-23T09:31:19;999.0222;;;0.26;86.59961
72975;BME280;74127;54.228;37.632;2024-02-23T09:35:19;999.0222;;;0.26;86.59961
72975;BME280;74127;54.228;37.632;2024-02-23T09:39:19;999.1604;;;0.29;86.37305
72975;BME280;74127;54.228;37.632;2024-02-23T09:43:21;999.2106;;;0.35;86.06055
72975;BME280;74127;54.228;37.632;2024-02-23T09:47:19;999.2067;;;0.35;85.73242
72975;BME280;74127;54.228;37.632;2024-02-23T09:51:19;999.3387;;;0.36;85.38867
72975;BME280;74127;54.228;37.632;2024-02-23T09:55:22;999.3387;;;0.36;85.38867
72975;BME280;74127;54.228;37.632;2024-02-23T09:59:19;999.3309;;;0.41;85.48242
72975;BME280;74127;54.228;37.632;2024-02-23T10:03:19;999.4526;;;0.44;85.21582
72975;BME280;74127;54.228;37.632;2024-02-23T10:07:19;999.3187;;;0.52;85.04102
72975;BME280;74127;54.228;37.632;2024-02-23T10:11:20;999.3908;;;0.61;84.80664
72975;BME280;74127;54.228;37.632;2024-02-23T10:15:19;999.3908;;;0.61;84.80664
72975;BME280;74127;54.228;37.632;2024-02-23T10:19:19;999.4598;;;0.73;84.40918
72975;BME280;74127;54.228;37.632;2024-02-23T10:23:19;999.4211;;;0.72;83.80469
72975;BME280;74127;54.228;37.632;2024-02-23T10:27:20;999.4036;;;0.68;83.50195
72975;BME280;74127;54.228;37.632;2024-02-23T10:31:19;999.4874;;;0.73;83.35449
72975;BME280;74127;54.228;37.632;2024-02-23T10:35:19;999.4874;;;0.73;83.35449
72975;BME280;74127;54.228;37.632;2024-02-23T10:43:19;999.4734;;;0.81;82.90723
72975;BME280;74127;54.228;37.632;2024-02-23T10:47:19;999.5186;;;0.85;82.51367
72975;BME280;74127;54.228;37.632;2024-02-23T10:51:19;999.5592;;;0.9;82.2373
72975;BME280;74127;54.228;37.632;2024-02-23T10:55:19;999.5592;;;0.9;82.2373
72975;BME280;74127;54.228;37.632;2024-02-23T10:59:19;999.6604;;;1.04;82.05176
72975;BME280;74127;54.228;37.632;2024-02-23T11:03:19;999.6146;;;1.03;81.68066
72975;BME280;74127;54.228;37.632;2024-02-23T11:07:19;999.7019;;;1.03;81.56445
72975;BME280;74127;54.228;37.632;2024-02-23T11:11:19;999.6254;;;1.17;81.27539
72975;BME280;74127;54.228;37.632;2024-02-23T11:15:29;999.6254;;;1.17;81.27539
72975;BME280;74127;54.228;37.632;2024-02-23T11:19:19;999.8033;;;1.25;80.59473
72975;BME280;74127;54.228;37.632;2024-02-23T11:23:19;999.6617;;;1.04;80.93262
72975;BME280;74127;54.228;37.632;2024-02-23T11:27:19;999.742;;;1.03;81.12109
72975;BME280;74127;54.228;37.632;2024-02-23T11:31:20;999.7072;;;1.02;81.31934
72975;BME280;74127;54.228;37.632;2024-02-23T11:35:19;999.7072;;;1.02;81.31934
72975;BME280;74127;54.228;37.632;2024-02-23T11:39:22;999.9288;;;0.96;81.21582
72975;BME280;74127;54.228;37.632;2024-02-23T11:43:19;999.8381;;;1.05;81.31641
72975;BME280;74127;54.228;37.632;2024-02-23T11:47:19;999.8816;;;1.12;81.21387
72975;BME280;74127;54.228;37.632;2024-02-23T11:51:22;999.9545;;;1.17;81.13867
72975;BME280;74127;54.228;37.632;2024-02-23T11:55:19;999.9545;;;1.17;81.13867
72975;BME280;74127;54.228;37.632;2024-02-23T11:59:20;999.8973;;;1.11;80.93652
72975;BME280;74127;54.228;37.632;2024-02-23T12:03:19;999.9855;;;1.07;81.01563
72975;BME280;74127;54.228;37.632;2024-02-23T12:07:19;1000.028;;;1.05;81.29492
72975;BME280;74127;54.228;37.632;2024-02-23T12:11:19;999.9397;;;1.01;81.53027
72975;BME280;74127;54.228;37.632;2024-02-23T12:15:19;999.9397;;;1.01;81.53027
72975;BME280;74127;54.228;37.632;2024-02-23T12:19:19;999.9559;;;1.1;81.68359
72975;BME280;74127;54.228;37.632;2024-02-23T12:23:19;1000.014;;;1.16;81.87598
72975;BME280;74127;54.228;37.632;2024-02-23T12:27:19;999.9239;;;1.13;82.03809
72975;BME280;74127;54.228;37.632;2024-02-23T12:31:25;1000.008;;;1.13;82.1543
72975;BME280;74127;54.228;37.632;2024-02-23T12:35:20;1000.008;;;1.13;82.1543
72975;BME280;74127;54.228;37.632;2024-02-23T12:39:20;1000.264;;;1.15;82.04297
72975;BME280;74127;54.228;37.632;2024-02-23T12:43:20;1000.081;;;1.13;82.32324
72975;BME280;74127;54.228;37.632;2024-02-23T12:47:20;1000.151;;;1.19;82.29492
72975;BME280;74127;54.228;37.632;2024-02-23T12:51:20;1000.157;;;1.15;82.29688
72975;BME280;74127;54.228;37.632;2024-02-23T12:55:20;1000.157;;;1.15;82.29688
72975;BME280;74127;54.228;37.632;2024-02-23T12:59:20;1000.16;;;1.12;82.50098
72975;BME280;74127;54.228;37.632;2024-02-23T13:03:20;1000.099;;;1.1;82.43555
72975;BME280;74127;54.228;37.632;2024-02-23T13:07:20;1000.184;;;1.06;82.57422
72975;BME280;74127;54.228;37.632;2024-02-23T13:11:20;1000.183;;;1.04;82.53906
72975;BME280;74127;54.228;37.632;2024-02-23T13:15:20;1000.183;;;1.04;82.53906
72975;BME280;74127;54.228;37.632;2024-02-23T13:19:20;1000.268;;;1.02;82.375
72975;BME280;74127;54.228;37.632;2024-02-23T13:23:20;1000.221;;;0.99;82.31738
72975;BME280;74127;54.228;37.632;2024-02-23T13:27:20;1000.248;;;0.92;82.51563
72975;BME280;74127;54.228;37.632;2024-02-23T13:31:20;1000.374;;;0.87;82.73828
72975;BME280;74127;54.228;37.632;2024-02-23T13:35:22;1000.374;;;0.87;82.73828
72975;BME280;74127;54.228;37.632;2024-02-23T13:43:20;1000.579;;;0.69;83.46191
72975;BME280;74127;54.228;37.632;2024-02-23T13:47:20;1000.415;;;0.54;84.25488
72975;BME280;74127;54.228;37.632;2024-02-23T13:51:20;1000.349;;;0.47;84.66113
72975;BME280;74127;54.228;37.632;2024-02-23T13:55:20;1000.349;;;0.47;84.66113
72975;BME280;74127;54.228;37.632;2024-02-23T13:59:20;1000.323;;;0.44;84.87891
72975;BME280;74127;54.228;37.632;2024-02-23T14:03:20;1000.388;;;0.5;84.93164
72975;BME280;74127;54.228;37.632;2024-02-23T14:07:20;1000.395;;;0.63;84.8418
72975;BME280;74127;54.228;37.632;2024-02-23T14:11:20;1000.525;;;0.62;84.7959
72975;BME280;74127;54.228;37.632;2024-02-23T14:15:20;1000.525;;;0.62;84.7959
72975;BME280;74127;54.228;37.632;2024-02-23T14:19:20;1000.431;;;0.47;85.18945
72975;BME280;74127;54.228;37.632;2024-02-23T14:23:20;1000.411;;;0.49;85.47754
72975;BME280;74127;54.228;37.632;2024-02-23T14:27:20;1000.515;;;0.48;85.4209
72975;BME280;74127;54.228;37.632;2024-02-23T14:31:20;1000.718;;;0.57;85.36621
72975;BME280;74127;54.228;37.632;2024-02-23T14:35:20;1000.718;;;0.57;85.36621
72975;BME280;74127;54.228;37.632;2024-02-23T14:39:20;1000.68;;;0.5;85.24805
72975;BME280;74127;54.228;37.632;2024-02-23T14:43:20;1000.619;;;0.46;85.22949
72975;BME280;74127;54.228;37.632;2024-02-23T14:47:20;1000.707;;;0.38;85.20215
72975;BME280;74127;54.228;37.632;2024-02-23T14:51:20;1000.7;;;0.37;85.03223
72975;BME280;74127;54.228;37.632;2024-02-23T14:55:20;1000.7;;;0.37;85.03223
72975;BME280;74127;54.228;37.632;2024-02-23T14:59:20;1000.797;;;0.4;85.04785
72975;BME280;74127;54.228;37.632;2024-02-23T15:03:20;1000.71;;;0.33;84.90918
72975;BME280;74127;54.228;37.632;2024-02-23T15:07:20;1000.712;;;0.3;85.09082
72975;BME280;74127;54.228;37.632;2024-02-23T15:11:20;1000.679;;;0.26;85.17871
72975;BME280;74127;54.228;37.632;2024-02-23T15:15:20;1000.679;;;0.26;85.17871
72975;BME280;74127;54.228;37.632;2024-02-23T15:19:20;1000.772;;;0.15;85.48242
72975;BME280;74127;54.228;37.632;2024-02-23T15:23:20;1000.826;;;0.17;85.41406
72975;BME280;74127;54.228;37.632;2024-02-23T15:27:20;1001.132;;;0.11;85.36914
72975;BME280;74127;54.228;37.632;2024-02-23T15:31:20;1001.105;;;0.11;85.28418
72975;BME280;74127;54.228;37.632;2024-02-23T15:35:20;1001.105;;;0.11;85.28418
72975;BME280;74127;54.228;37.632;2024-02-23T15:39:20;1001.141;;;0.17;85.12793
72975;BME280;74127;54.228;37.632;2024-02-23T15:43:20;1001.183;;;0.15;85.22949
72975;BME280;74127;54.228;37.632;2024-02-23T15:47:20;1001.181;;;0.16;85.09668
72975;BME280;74127;54.228;37.632;2024-02-23T15:55:20;1001.114;;;0.11;85.0752
72975;BME280;74127;54.228;37.632;2024-02-23T15:59:20;1001.299;;;0.09;85.2168
72975;BME280;74127;54.228;37.632;2024-02-23T16:03:20;1001.27;;;0.04;85.34473
72975;BME280;74127;54.228;37.632;2024-02-23T16:07:20;1001.383;;;0.02;85.43652
72975;BME280;74127;54.228;37.632;2024-02-23T16:11:20;1001.648;;;-0.07;85.16406
72975;BME280;74127;54.228;37.632;2024-02-23T16:15:20;1001.648;;;-0.07;85.16406
72975;BME280;74127;54.228;37.632;2024-02-23T16:19:20;1001.666;;;-0.12;85.39648
72975;BME280;74127;54.228;37.632;2024-02-23T16:23:20;1001.584;;;-0.18;85.45898
72975;BME280;74127;54.228;37.632;2024-02-23T16:27:20;1001.699;;;-0.15;85.12598
72975;BME280;74127;54.228;37.632;2024-02-23T16:31:20;1001.716;;;-0.41;84.98145
72975;BME280;74127;54.228;37.632;2024-02-23T16:35:20;1001.716;;;-0.41;84.98145
72975;BME280;74127;54.228;37.632;2024-02-23T16:39:20;1001.985;;;-0.42;85.08496
72975;BME280;74127;54.228;37.632;2024-02-23T16:43:20;1001.833;;;-0.51;85.21484
72975;BME280;74127;54.228;37.632;2024-02-23T16:47:22;1001.969;;;-0.55;85.25879
72975;BME280;74127;54.228;37.632;2024-02-23T16:51:20;1001.862;;;-0.62;85.32715
72975;BME280;74127;54.228;37.632;2024-02-23T16:55:20;1001.862;;;-0.62;85.32715
72975;BME280;74127;54.228;37.632;2024-02-23T16:59:20;1001.955;;;-0.62;85.39258
72975;BME280;74127;54.228;37.632;2024-02-23T17:03:20;1001.92;;;-0.73;85.50684
72975;BME280;74127;54.228;37.632;2024-02-23T17:07:20;1002.052;;;-0.66;85.69824
72975;BME280;74127;54.228;37.632;2024-02-23T17:11:20;1001.905;;;-0.64;85.74414
72975;BME280;74127;54.228;37.632;2024-02-23T17:15:20;1001.905;;;-0.64;85.74414
72975;BME280;74127;54.228;37.632;2024-02-23T17:19:20;1001.976;;;-0.65;85.7334
72975;BME280;74127;54.228;37.632;2024-02-23T17:23:20;1001.85;;;-0.7;85.49121
72975;BME280;74127;54.228;37.632;2024-02-23T17:27:23;1002.012;;;-0.77;85.24707
72975;BME280;74127;54.228;37.632;2024-02-23T17:31:20;1001.886;;;-0.86;85.42773
72975;BME280;74127;54.228;37.632;2024-02-23T17:35:20;1001.886;;;-0.86;85.42773
72975;BME280;74127;54.228;37.632;2024-02-23T17:39:20;1002.009;;;-0.91;85.72266
72975;BME280;74127;54.228;37.632;2024-02-23T17:43:20;1001.974;;;-0.87;85.85645
72975;BME280;74127;54.228;37.632;2024-02-23T17:47:23;1002.031;;;-0.87;85.87695
72975;BME280;74127;54.228;37.632;2024-02-23T17:51:23;1001.91;;;-0.88;85.78125
72975;BME280;74127;54.228;37.632;2024-02-23T17:55:23;1001.91;;;-0.88;85.78125
72975;BME280;74127;54.228;37.632;2024-02-23T17:59:20;1002.11;;;-0.85;85.79688
72975;BME280;74127;54.228;37.632;2024-02-23T18:03:20;1002.338;;;-0.84;85.52832
72975;BME280;74127;54.228;37.632;2024-02-23T18:07:20;1002.058;;;-0.87;85.55176
72975;BME280;74127;54.228;37.632;2024-02-23T18:11:20;1002.19;;;-0.84;85.46289
72975;BME280;74127;54.228;37.632;2024-02-23T18:15:20;1002.19;;;-0.84;85.46289
72975;BME280;74127;54.228;37.632;2024-02-23T18:19:20;1002.39;;;-0.85;85.39844
72975;BME280;74127;54.228;37.632;2024-02-23T18:23:20;1002.259;;;-0.87;85.15332
72975;BME280;74127;54.228;37.632;2024-02-23T18:27:20;1002.188;;;-1.05;85.2334
72975;BME280;74127;54.228;37.632;2024-02-23T18:31:20;1002.306;;;-1.05;85.41113
72975;BME280;74127;54.228;37.632;2024-02-23T18:35:20;1002.306;;;-1.05;85.41113
72975;BME280;74127;54.228;37.632;2024-02-23T18:39:20;1002.45;;;-1.11;85.12793
72975;BME280;74127;54.228;37.632;2024-02-23T18:47:20;1002.295;;;-1.09;84.92969
72975;BME280;74127;54.228;37.632;2024-02-23T18:51:20;1002.328;;;-1.12;84.72656
72975;BME280;74127;54.228;37.632;2024-02-23T18:55:20;1002.328;;;-1.12;84.72656
72975;BME280;74127;54.228;37.632;2024-02-23T18:59:23;1002.476;;;-1.07;84.66113
72975;BME280;74127;54.228;37.632;2024-02-23T19:03:23;1002.464;;;-1.13;84.86133
72975;BME280;74127;54.228;37.632;2024-02-23T19:07:23;1002.446;;;-1.11;84.81055
72975;BME280;74127;54.228;37.632;2024-02-23T19:11:20;1002.497;;;-1.16;84.33984
72975;BME280;74127;54.228;37.632;2024-02-23T19:15:20;1002.497;;;-1.16;84.33984
72975;BME280;74127;54.228;37.632;2024-02-23T19:19:20;1002.735;;;-1.2;84.25879
72975;BME280;74127;54.228;37.632;2024-02-23T19:23:20;1002.577;;;-1.28;83.5918
72975;BME280;74127;54.228;37.632;2024-02-23T19:27:20;1002.626;;;-1.28;83.44531
72975;BME280;74127;54.228;37.632;2024-02-23T19:31:20;1002.704;;;-1.24;83.25293
72975;BME280;74127;54.228;37.632;2024-02-23T19:35:28;1002.704;;;-1.24;83.25293
72975;BME280;74127;54.228;37.632;2024-02-23T19:39:20;1002.612;;;-1.18;83.12793
72975;BME280;74127;54.228;37.632;2024-02-23T19:43:20;1002.649;;;-1.18;82.96973
72975;BME280;74127;54.228;37.632;2024-02-23T19:47:21;1002.656;;;-1.14;82.90527
72975;BME280;74127;54.228;37.632;2024-02-23T19:51:20;1002.737;;;-1.14;82.64355
72975;BME280;74127;54.228;37.632;2024-02-23T19:55:20;1002.737;;;-1.14;82.64355
72975;BME280;74127;54.228;37.632;2024-02-23T19:59:20;1002.716;;;-1.17;82.68848
72975;BME280;74127;54.228;37.632;2024-02-23T20:03:20;1002.753;;;-1.27;82.69141
72975;BME280;74127;54.228;37.632;2024-02-23T20:07:20;1003.043;;;-1.23;82.80371
72975;BME280;74127;54.228;37.632;2024-02-23T20:11:20;1003.045;;;-1.19;82.65527
72975;BME280;74127;54.228;37.632;2024-02-23T20:15:20;1003.045;;;-1.19;82.65527
72975;BME280;74127;54.228;37.632;2024-02-23T20:19:21;1003.171;;;-1.14;82.58008
72975;BME280;74127;54.228;37.632;2024-02-23T20:23:20;1003.051;;;-1.14;82.69531
72975;BME280;74127;54.228;37.632;2024-02-23T20:27:20;1003.091;;;-1.09;82.88281
72975;BME280;74127;54.228;37.632;2024-02-23T20:31:20;1003.214;;;-1.11;82.77441
72975;BME280;74127;54.228;37.632;2024-02-23T20:35:20;1003.214;;;-1.11;82.77441
72975;BME280;74127;54.228;37.632;2024-02-23T20:39:20;1003.422;;;-1.26;82.75586
72975;BME280;74127;54.228;37.632;2024-02-23T20:43:20;1003.29;;;-1.29;82.67676
72975;BME280;74127;54.228;37.632;2024-02-23T20:47:20;1003.337;;;-1.38;82.7959